Azure — ZCEE2 — position and weather

sailwx.info

Track history (hours):
 
Tides and Currents Weather Stations Pressure Air Temp Water Temp Dewpoint Dewpoint Depression Visibility Wind Speed Wind Dir Waves Ship Positions

Azure

Last reported at 2016-Apr-30 14:32 UTC. Time now 2016-Apr-30 15:04 UTC.
Position N 50°54' W 001°26'.

Length 289 m; draft 8.6 m.

Type: Passenger vessel. MMSI: 310610000.

Date/timePositionNaut miles runAvg speedWind from/ knotsBaromVisibWave heightAir tempDewpointWater temp
2016-Apr-30 14:32N 50°54' W 001°26'0 0.0
2016-Apr-30 13:32N 50°54' W 001°26'0 0.0
2016-Apr-30 12:33N 50°54' W 001°26'0 0.0
2016-Apr-30 11:33N 50°54' W 001°26'0 0.0
2016-Apr-30 10:34N 50°54' W 001°26'0 0.0
2016-Apr-30 09:34N 50°54' W 001°26'0 0.0
2016-Apr-30 08:34N 50°54' W 001°26'0 0.0
2016-Apr-30 07:34N 50°54' W 001°26'0 0.0
2016-Apr-30 06:34N 50°54' W 001°26'0 0.1
2016-Apr-30 05:33N 50°54' W 001°26'8 8.0
2016-Apr-30 04:34N 50°48' W 001°18'1413.8
2016-Apr-30 03:34N 50°42' W 000°58'9 8.7
2016-Apr-30 02:33N 50°37' W 000°47'10 9.8
2016-Apr-30 01:33N 50°34' W 000°32'9 9.2
2016-Apr-30 00:33N 50°32' W 000°18'8 7.6
2016-Apr-29 23:33N 50°33' W 000°06'1110.9
2016-Apr-29 22:33N 50°33' E 000°11'6 9.8
2016-Apr-29 22:00N 50°30' E 000°18'920.6 270 / 151014.510.8 1.5 9.0 4.510.0
2016-Apr-29 21:33N 50°36' E 000°28'2611.6
2016-Apr-29 19:17N 50°51' E 001°03'912.1
2016-Apr-29 18:33N 50°57' E 001°13'1111.5
2016-Apr-29 17:33N 51°04' E 001°27'1010.2
2016-Apr-29 16:33N 51°11' E 001°39'1010.3
2016-Apr-29 15:33N 51°19' E 001°49'1010.3
2016-Apr-29 14:33N 51°28' E 001°58'3 4.6
2016-Apr-29 14:00N 51°30' E 002°00'818.1 220 / 371007.710.8 3.5 9.0 1.8 9.0
2016-Apr-29 13:33N 51°36' E 002°09'1111.2
2016-Apr-29 12:33N 51°44' E 002°22'1111.3
2016-Apr-29 11:33N 51°52' E 002°34'1110.9
2016-Apr-29 10:33N 52°01' E 002°45'1010.3
2016-Apr-29 09:32N 52°08' E 002°56'33 9.7
2016-Apr-29 06:09N 52°29' E 003°39'6 9.2
2016-Apr-29 05:32N 52°30' E 003°48'9 9.3
2016-Apr-29 04:33N 52°31' E 004°03'1010.1
2016-Apr-29 03:33N 52°30' E 004°19'1010.3
2016-Apr-29 02:33N 52°28' E 004°36'3 2.5
2016-Apr-29 01:33N 52°28' E 004°40'8 7.6
2016-Apr-29 00:33N 52°25' E 004°51'3 3.2
2016-Apr-28 23:32N 52°23' E 004°55'0 0.0
2016-Apr-28 22:32N 52°23' E 004°55'0 0.0
2016-Apr-28 21:32N 52°23' E 004°55'0 0.0
2016-Apr-28 20:32N 52°23' E 004°55'0 0.0
2016-Apr-28 19:32N 52°23' E 004°55'0 0.0
2016-Apr-28 18:32N 52°23' E 004°55'0 0.0
2016-Apr-28 17:32N 52°23' E 004°55'0 0.0
2016-Apr-28 16:32N 52°23' E 004°55'0 0.0
2016-Apr-28 15:32N 52°23' E 004°55'0 0.0
2016-Apr-28 14:32N 52°23' E 004°55'0 0.0
2016-Apr-28 13:32N 52°23' E 004°55'0 0.0
2016-Apr-28 12:32N 52°23' E 004°55'0 0.0
2016-Apr-28 11:32N 52°23' E 004°55'0 0.0
2016-Apr-28 10:32N 52°23' E 004°55'0 0.0
2016-Apr-28 09:32N 52°23' E 004°55'0 0.0
2016-Apr-28 08:32N 52°23' E 004°55'0 0.0
2016-Apr-28 07:32N 52°23' E 004°55'0 0.0
2016-Apr-28 06:32N 52°23' E 004°55'0 0.0
2016-Apr-28 05:32N 52°23' E 004°55'0 0.4
2016-Apr-28 04:34N 52°23' E 004°54'6 6.1
2016-Apr-28 03:34N 52°26' E 004°46'6 6.1
2016-Apr-28 02:34N 52°28' E 004°37'3 3.3
2016-Apr-28 01:34N 52°28' E 004°31'1111.0
2016-Apr-28 00:34N 52°29' E 004°13'1111.3
2016-Apr-27 23:33N 52°27' E 003°55'1111.0
2016-Apr-27 22:33N 52°24' E 003°38'6112.0
2016-Apr-27 17:29N 51°40' E 002°28'1213.1
2016-Apr-27 16:33N 51°31' E 002°16'1212.5
2016-Apr-27 15:33N 51°20' E 002°07'1111.3
2016-Apr-27 14:33N 51°11' E 001°56'1212.3
2016-Apr-27 13:33N 51°04' E 001°40'1313.0
2016-Apr-27 12:33N 50°54' E 001°26'1312.4
2016-Apr-27 11:32N 50°42' E 001°21'3511.6
2016-Apr-27 08:33N 50°26' E 000°32'1111.4
2016-Apr-27 07:33N 50°23' E 000°15'1111.1
2016-Apr-27 06:34N 50°20' W 000°01'1110.8
2016-Apr-27 05:33N 50°17' W 000°18'1010.3
2016-Apr-27 04:33N 50°15' W 000°33'1010.1
2016-Apr-27 03:34N 50°12' W 000°49'1610.4
2016-Apr-27 02:00N 50°06' W 001°12'4414.7 330 / 281011.710.8 2.0 9.5 2.410.0
2016-Apr-26 23:00N 49°54' W 002°18'13 9.4 320 / 361011.910.8 2.010.0 1.611.0
2016-Apr-26 21:33N 49°54' W 002°39'1312.8
2016-Apr-26 20:34N 49°50' W 002°58'1312.6
2016-Apr-26 19:34N 49°46' W 003°16'1212.2
2016-Apr-26 18:34N 49°40' W 003°33'31 5.5
2016-Apr-26 13:00N 49°18' W 003°00'38 3.7 340 / 271012.610.8 2.0 7.5-0.210.0
2016-Apr-26 02:33N 49°56' W 003°01'5 8.3
2016-Apr-26 02:00N 49°54' W 002°54'1021.4 340 / 351010.7 5.4 2.0 8.0 0.511.0
2016-Apr-26 01:31N 50°00' W 002°42'3614.4
2016-Apr-25 23:00N 50°12' W 001°48'21 8.7 330 / 401009.410.8 2.0 8.5-0.411.0
2016-Apr-25 20:33N 50°26' W 001°23'1010.4
2016-Apr-25 19:33N 50°31' W 001°08'1111.0
2016-Apr-25 18:33N 50°40' W 000°58'1212.3
2016-Apr-25 17:34N 50°46' W 001°15'10 9.6
2016-Apr-25 16:33N 50°53' W 001°24'1 1.1
2016-Apr-25 15:29N 50°54' W 001°26'0 0.0
2016-Apr-25 14:32N 50°54' W 001°26'0 0.0
2016-Apr-25 13:32N 50°54' W 001°26'0 0.0
2016-Apr-25 12:32N 50°54' W 001°26'0 0.0
2016-Apr-25 11:32N 50°54' W 001°26'0 0.0
2016-Apr-25 10:32N 50°54' W 001°26'0 0.0
2016-Apr-25 09:32N 50°54' W 001°26'0 0.0
2016-Apr-25 08:32N 50°54' W 001°26'0 0.0
2016-Apr-25 07:32N 50°54' W 001°26'0 0.0
2016-Apr-25 06:32N 50°54' W 001°26'0 0.0
2016-Apr-25 05:32N 50°54' W 001°26'3 2.6
2016-Apr-25 04:33N 50°52' W 001°23'10 9.9
2016-Apr-25 03:34N 50°46' W 001°11'1211.6
2016-Apr-25 02:33N 50°38' W 000°59'1111.3
2016-Apr-25 01:33N 50°29' W 001°11'4312.1
2016-Apr-24 22:00N 50°00' W 002°00'1723.4 300 / 301019.910.8 2.011.0 4.311.0
2016-Apr-24 21:16N 49°56' W 002°26'1419.7
2016-Apr-24 20:33N 49°51' W 002°46'2121.1
2016-Apr-24 19:33N 49°40' W 003°13'7020.7
2016-Apr-24 16:11N 48°57' W 004°38'1320.5
2016-Apr-24 15:32N 48°49' W 004°54'2020.2
2016-Apr-24 14:33N 48°36' W 005°16'24219.2
2016-Apr-24 02:00N 45°06' W 008°12'8220.4 050 / 201021.9 5.4 1.013.0 7.913.0
2016-Apr-23 22:00N 43°54' W 009°06'14117.7 040 / 171024.510.8 0.513.011.115.0
2016-Apr-23 14:00N 41°36' W 009°48'13517.6 340 / 101018.810.8 0.515.011.315.0
2016-Apr-23 06:18N 39°21' W 009°52'1418.8
2016-Apr-23 05:33N 39°06' W 009°52'1818.3
2016-Apr-23 04:33N 38°48' W 009°52'1919.0
2016-Apr-23 03:33N 38°29' W 009°49'2019.6
2016-Apr-23 02:33N 38°10' W 009°44'2019.8
2016-Apr-23 01:33N 37°51' W 009°38'2220.1
2016-Apr-23 00:26N 37°29' W 009°30'5321.7
2016-Apr-22 22:00N 36°42' W 009°00'17218.2 170 / 91022.010.8 17.013.517.0
2016-Apr-22 12:33N 35°58' W 005°34'1414.4
2016-Apr-22 11:33N 36°09' W 005°23'1 0.1
2016-Apr-22 06:13N 36°09' W 005°22'6 9.1
2016-Apr-22 05:34N 36°04' W 005°17'11620.9
2016-Apr-22 00:00N 36°18' W 002°54'6922.9 230 / 41019.810.8 0.516.513.917.0
2016-Apr-21 21:00N 36°30' W 001°30'2919.9 170 / 71023.710.8 0.516.512.017.0
2016-Apr-21 19:33N 36°37' W 000°55'2222.1
2016-Apr-21 18:33N 36°39' W 000°28'2222.0
2016-Apr-21 17:33N 36°43' W 000°01'2221.8
2016-Apr-21 16:32N 36°46' E 000°26'9520.9
2016-Apr-21 12:00N 37°00' E 002°24'25520.0 260 / 251020.810.8 2.016.512.917.0
2016-Apr-20 23:12N 37°35' E 007°42'524.3
2016-Apr-20 23:00N 37°30' E 007°42'1728.3 090 / 201015.9 5.4 2.518.012.718.0
2016-Apr-20 22:23N 37°36' E 008°02'1720.4
2016-Apr-20 21:33N 37°38' E 008°24'2820.4
2016-Apr-20 20:10N 37°40' E 008°59'1520.8
2016-Apr-20 19:26N 37°39' E 009°18'1820.8
2016-Apr-20 18:34N 37°39' E 009°41'  
Track history (hours):
 
Tides and Currents Weather Stations Pressure Air Temp Water Temp Dewpoint Dewpoint Depression Visibility Wind Speed Wind Dir Waves Ship Positions

Azure

Last reported at 2016-Apr-30 14:32 UTC. Time now 2016-Apr-30 15:04 UTC.
Position N 50°54' W 001°26'.

Length 289 m; draft 8.6 m.

Type: Passenger vessel. MMSI: 310610000.

Date/timePositionNaut miles runAvg speedWind from/ knotsBaromVisibWave heightAir tempDewpointWater temp
2016-Apr-30 14:32N 50°54' W 001°26'0 0.0
2016-Apr-30 13:32N 50°54' W 001°26'0 0.0
2016-Apr-30 12:33N 50°54' W 001°26'0 0.0
2016-Apr-30 11:33N 50°54' W 001°26'0 0.0
2016-Apr-30 10:34N 50°54' W 001°26'0 0.0
2016-Apr-30 09:34N 50°54' W 001°26'0 0.0
2016-Apr-30 08:34N 50°54' W 001°26'0 0.0
2016-Apr-30 07:34N 50°54' W 001°26'0 0.0
2016-Apr-30 06:34N 50°54' W 001°26'0 0.1
2016-Apr-30 05:33N 50°54' W 001°26'8 8.0
2016-Apr-30 04:34N 50°48' W 001°18'1413.8
2016-Apr-30 03:34N 50°42' W 000°58'9 8.7
2016-Apr-30 02:33N 50°37' W 000°47'10 9.8
2016-Apr-30 01:33N 50°34' W 000°32'9 9.2
2016-Apr-30 00:33N 50°32' W 000°18'8 7.6
2016-Apr-29 23:33N 50°33' W 000°06'1110.9
2016-Apr-29 22:33N 50°33' E 000°11'6 9.8
2016-Apr-29 22:00N 50°30' E 000°18'920.6 270 / 151014.510.8 1.5 9.0 4.510.0
2016-Apr-29 21:33N 50°36' E 000°28'2611.6
2016-Apr-29 19:17N 50°51' E 001°03'912.1
2016-Apr-29 18:33N 50°57' E 001°13'1111.5
2016-Apr-29 17:33N 51°04' E 001°27'1010.2
2016-Apr-29 16:33N 51°11' E 001°39'1010.3
2016-Apr-29 15:33N 51°19' E 001°49'1010.3
2016-Apr-29 14:33N 51°28' E 001°58'3 4.6
2016-Apr-29 14:00N 51°30' E 002°00'818.1 220 / 371007.710.8 3.5 9.0 1.8 9.0
2016-Apr-29 13:33N 51°36' E 002°09'1111.2
2016-Apr-29 12:33N 51°44' E 002°22'1111.3
2016-Apr-29 11:33N 51°52' E 002°34'1110.9
2016-Apr-29 10:33N 52°01' E 002°45'1010.3
2016-Apr-29 09:32N 52°08' E 002°56'33 9.7
2016-Apr-29 06:09N 52°29' E 003°39'6 9.2
2016-Apr-29 05:32N 52°30' E 003°48'9 9.3
2016-Apr-29 04:33N 52°31' E 004°03'1010.1
2016-Apr-29 03:33N 52°30' E 004°19'1010.3
2016-Apr-29 02:33N 52°28' E 004°36'3 2.5
2016-Apr-29 01:33N 52°28' E 004°40'8 7.6
2016-Apr-29 00:33N 52°25' E 004°51'3 3.2
2016-Apr-28 23:32N 52°23' E 004°55'0 0.0
2016-Apr-28 22:32N 52°23' E 004°55'0 0.0
2016-Apr-28 21:32N 52°23' E 004°55'0 0.0
2016-Apr-28 20:32N 52°23' E 004°55'0 0.0
2016-Apr-28 19:32N 52°23' E 004°55'0 0.0
2016-Apr-28 18:32N 52°23' E 004°55'0 0.0
2016-Apr-28 17:32N 52°23' E 004°55'0 0.0
2016-Apr-28 16:32N 52°23' E 004°55'0 0.0
2016-Apr-28 15:32N 52°23' E 004°55'0 0.0
2016-Apr-28 14:32N 52°23' E 004°55'0 0.0
2016-Apr-28 13:32N 52°23' E 004°55'0 0.0
2016-Apr-28 12:32N 52°23' E 004°55'0 0.0
2016-Apr-28 11:32N 52°23' E 004°55'0 0.0
2016-Apr-28 10:32N 52°23' E 004°55'0 0.0
2016-Apr-28 09:32N 52°23' E 004°55'0 0.0
2016-Apr-28 08:32N 52°23' E 004°55'0 0.0
2016-Apr-28 07:32N 52°23' E 004°55'0 0.0
2016-Apr-28 06:32N 52°23' E 004°55'0 0.0
2016-Apr-28 05:32N 52°23' E 004°55'0 0.4
2016-Apr-28 04:34N 52°23' E 004°54'6 6.1
2016-Apr-28 03:34N 52°26' E 004°46'6 6.1
2016-Apr-28 02:34N 52°28' E 004°37'3 3.3
2016-Apr-28 01:34N 52°28' E 004°31'1111.0
2016-Apr-28 00:34N 52°29' E 004°13'1111.3
2016-Apr-27 23:33N 52°27' E 003°55'1111.0
2016-Apr-27 22:33N 52°24' E 003°38'6112.0
2016-Apr-27 17:29N 51°40' E 002°28'1213.1
2016-Apr-27 16:33N 51°31' E 002°16'1212.5
2016-Apr-27 15:33N 51°20' E 002°07'1111.3
2016-Apr-27 14:33N 51°11' E 001°56'1212.3
2016-Apr-27 13:33N 51°04' E 001°40'1313.0
2016-Apr-27 12:33N 50°54' E 001°26'1312.4
2016-Apr-27 11:32N 50°42' E 001°21'3511.6
2016-Apr-27 08:33N 50°26' E 000°32'1111.4
2016-Apr-27 07:33N 50°23' E 000°15'1111.1
2016-Apr-27 06:34N 50°20' W 000°01'1110.8
2016-Apr-27 05:33N 50°17' W 000°18'1010.3
2016-Apr-27 04:33N 50°15' W 000°33'1010.1
2016-Apr-27 03:34N 50°12' W 000°49'1610.4
2016-Apr-27 02:00N 50°06' W 001°12'4414.7 330 / 281011.710.8 2.0 9.5 2.410.0
2016-Apr-26 23:00N 49°54' W 002°18'13 9.4 320 / 361011.910.8 2.010.0 1.611.0
2016-Apr-26 21:33N 49°54' W 002°39'1312.8
2016-Apr-26 20:34N 49°50' W 002°58'1312.6
2016-Apr-26 19:34N 49°46' W 003°16'1212.2
2016-Apr-26 18:34N 49°40' W 003°33'31 5.5
2016-Apr-26 13:00N 49°18' W 003°00'38 3.7 340 / 271012.610.8 2.0 7.5-0.210.0
2016-Apr-26 02:33N 49°56' W 003°01'5 8.3
2016-Apr-26 02:00N 49°54' W 002°54'1021.4 340 / 351010.7 5.4 2.0 8.0 0.511.0
2016-Apr-26 01:31N 50°00' W 002°42'3614.4
2016-Apr-25 23:00N 50°12' W 001°48'21 8.7 330 / 401009.410.8 2.0 8.5-0.411.0
2016-Apr-25 20:33N 50°26' W 001°23'1010.4
2016-Apr-25 19:33N 50°31' W 001°08'1111.0
2016-Apr-25 18:33N 50°40' W 000°58'1212.3
2016-Apr-25 17:34N 50°46' W 001°15'10 9.6
2016-Apr-25 16:33N 50°53' W 001°24'1 1.1
2016-Apr-25 15:29N 50°54' W 001°26'0 0.0
2016-Apr-25 14:32N 50°54' W 001°26'0 0.0
2016-Apr-25 13:32N 50°54' W 001°26'0 0.0
2016-Apr-25 12:32N 50°54' W 001°26'0 0.0
2016-Apr-25 11:32N 50°54' W 001°26'0 0.0
2016-Apr-25 10:32N 50°54' W 001°26'0 0.0
2016-Apr-25 09:32N 50°54' W 001°26'0 0.0
2016-Apr-25 08:32N 50°54' W 001°26'0 0.0
2016-Apr-25 07:32N 50°54' W 001°26'0 0.0
2016-Apr-25 06:32N 50°54' W 001°26'0 0.0
2016-Apr-25 05:32N 50°54' W 001°26'3 2.6
2016-Apr-25 04:33N 50°52' W 001°23'10 9.9
2016-Apr-25 03:34N 50°46' W 001°11'1211.6
2016-Apr-25 02:33N 50°38' W 000°59'1111.3
2016-Apr-25 01:33N 50°29' W 001°11'4312.1
2016-Apr-24 22:00N 50°00' W 002°00'1723.4 300 / 301019.910.8 2.011.0 4.311.0
2016-Apr-24 21:16N 49°56' W 002°26'1419.7
2016-Apr-24 20:33N 49°51' W 002°46'2121.1
2016-Apr-24 19:33N 49°40' W 003°13'7020.7
2016-Apr-24 16:11N 48°57' W 004°38'1320.5
2016-Apr-24 15:32N 48°49' W 004°54'2020.2
2016-Apr-24 14:33N 48°36' W 005°16'24219.2
2016-Apr-24 02:00N 45°06' W 008°12'8220.4 050 / 201021.9 5.4 1.013.0 7.913.0
2016-Apr-23 22:00N 43°54' W 009°06'14117.7 040 / 171024.510.8 0.513.011.115.0
2016-Apr-23 14:00N 41°36' W 009°48'13517.6 340 / 101018.810.8 0.515.011.315.0
2016-Apr-23 06:18N 39°21' W 009°52'1418.8
2016-Apr-23 05:33N 39°06' W 009°52'1818.3
2016-Apr-23 04:33N 38°48' W 009°52'1919.0
2016-Apr-23 03:33N 38°29' W 009°49'2019.6
2016-Apr-23 02:33N 38°10' W 009°44'2019.8
2016-Apr-23 01:33N 37°51' W 009°38'2220.1
2016-Apr-23 00:26N 37°29' W 009°30'5321.7
2016-Apr-22 22:00N 36°42' W 009°00'17218.2 170 / 91022.010.8 17.013.517.0
2016-Apr-22 12:33N 35°58' W 005°34'1414.4
2016-Apr-22 11:33N 36°09' W 005°23'1 0.1
2016-Apr-22 06:13N 36°09' W 005°22'6 9.1
2016-Apr-22 05:34N 36°04' W 005°17'11620.9
2016-Apr-22 00:00N 36°18' W 002°54'6922.9 230 / 41019.810.8 0.516.513.917.0
2016-Apr-21 21:00N 36°30' W 001°30'2919.9 170 / 71023.710.8 0.516.512.017.0
2016-Apr-21 19:33N 36°37' W 000°55'2222.1
2016-Apr-21 18:33N 36°39' W 000°28'2222.0
2016-Apr-21 17:33N 36°43' W 000°01'2221.8
2016-Apr-21 16:32N 36°46' E 000°26'9520.9
2016-Apr-21 12:00N 37°00' E 002°24'25520.0 260 / 251020.810.8 2.016.512.917.0
2016-Apr-20 23:12N 37°35' E 007°42'524.3
2016-Apr-20 23:00N 37°30' E 007°42'1728.3 090 / 201015.9 5.4 2.518.012.718.0
2016-Apr-20 22:23N 37°36' E 008°02'1720.4
2016-Apr-20 21:33N 37°38' E 008°24'2820.4
2016-Apr-20 20:10N 37°40' E 008°59'1520.8
2016-Apr-20 19:26N 37°39' E 009°18'1820.8
2016-Apr-20 18:34N 37°39' E 009°41'  

Dump ship's entire track history